sensor_id;sensor_type;location;lat;lon;timestamp;pressure;altitude;pressure_sealevel;temperature;humidity
15272;BME280;7737;51.578;7.268;2023-04-26T00:00:34;101376.44;;;3.93;100.00
15272;BME280;7737;51.578;7.268;2023-04-26T00:03:00;101375.44;;;4.03;100.00
15272;BME280;7737;51.578;7.268;2023-04-26T00:05:28;101382.50;;;3.98;100.00
15272;BME280;7737;51.578;7.268;2023-04-26T00:07:55;101384.28;;;3.96;100.00
15272;BME280;7737;51.578;7.268;2023-04-26T00:10:24;101387.03;;;3.87;100.00
15272;BME280;7737;51.578;7.268;2023-04-26T00:12:50;101382.78;;;3.76;100.00
15272;BME280;7737;51.578;7.268;2023-04-26T00:15:17;101385.41;;;3.76;100.00
15272;BME280;7737;51.578;7.268;2023-04-26T00:17:44;101388.00;;;3.80;100.00
15272;BME280;7737;51.578;7.268;2023-04-26T00:20:11;101387.97;;;3.79;100.00
15272;BME280;7737;51.578;7.268;2023-04-26T00:22:38;101385.47;;;3.68;100.00
15272;BME280;7737;51.578;7.268;2023-04-26T00:25:06;101385.47;;;3.69;100.00
15272;BME280;7737;51.578;7.268;2023-04-26T00:27:34;101376.75;;;3.67;100.00
15272;BME280;7737;51.578;7.268;2023-04-26T00:30:00;101379.31;;;3.72;100.00
15272;BME280;7737;51.578;7.268;2023-04-26T00:32:27;101373.25;;;3.64;100.00
15272;BME280;7737;51.578;7.268;2023-04-26T00:34:53;101373.25;;;3.67;100.00
15272;BME280;7737;51.578;7.268;2023-04-26T00:37:20;101362.78;;;3.62;100.00
15272;BME280;7737;51.578;7.268;2023-04-26T00:39:47;101378.59;;;3.55;100.00
15272;BME280;7737;51.578;7.268;2023-04-26T00:42:14;101369.81;;;3.59;100.00
15272;BME280;7737;51.578;7.268;2023-04-26T00:44:42;101376.88;;;3.52;100.00
15272;BME280;7737;51.578;7.268;2023-04-26T00:47:08;101369.09;;;3.43;100.00
15272;BME280;7737;51.578;7.268;2023-04-26T00:49:35;101364.63;;;3.53;100.00
15272;BME280;7737;51.578;7.268;2023-04-26T00:52:02;101367.19;;;3.59;100.00
15272;BME280;7737;51.578;7.268;2023-04-26T00:54:28;101366.41;;;3.51;100.00
15272;BME280;7737;51.578;7.268;2023-04-26T00:56:55;101371.00;;;3.29;100.00
15272;BME280;7737;51.578;7.268;2023-04-26T00:59:22;101366.63;;;3.27;100.00
15272;BME280;7737;51.578;7.268;2023-04-26T01:01:50;101371.00;;;3.28;100.00
15272;BME280;7737;51.578;7.268;2023-04-26T01:04:17;101371.91;;;3.24;100.00
15272;BME280;7737;51.578;7.268;2023-04-26T01:06:44;101368.41;;;3.28;100.00
15272;BME280;7737;51.578;7.268;2023-04-26T01:09:11;101363.13;;;3.31;100.00
15272;BME280;7737;51.578;7.268;2023-04-26T01:11:39;101364.78;;;3.36;100.00
15272;BME280;7737;51.578;7.268;2023-04-26T01:14:07;101368.50;;;3.17;100.00
15272;BME280;7737;51.578;7.268;2023-04-26T01:16:35;101368.47;;;3.16;100.00
15272;BME280;7737;51.578;7.268;2023-04-26T01:19:10;101367.75;;;3.01;100.00
15272;BME280;7737;51.578;7.268;2023-04-26T01:21:38;101372.06;;;3.08;100.00
15272;BME280;7737;51.578;7.268;2023-04-26T01:24:08;101371.22;;;3.02;100.00
15272;BME280;7737;51.578;7.268;2023-04-26T01:26:35;101370.28;;;3.12;100.00
15272;BME280;7737;51.578;7.268;2023-04-26T01:29:12;101373.03;;;2.98;100.00
15272;BME280;7737;51.578;7.268;2023-04-26T01:31:39;101372.25;;;2.84;100.00
15272;BME280;7737;51.578;7.268;2023-04-26T01:34:05;101379.09;;;3.03;100.00
15272;BME280;7737;51.578;7.268;2023-04-26T01:36:32;101374.94;;;2.77;100.00
15272;BME280;7737;51.578;7.268;2023-04-26T01:38:58;101381.06;;;2.77;100.00
15272;BME280;7737;51.578;7.268;2023-04-26T01:41:26;101379.28;;;2.82;100.00
15272;BME280;7737;51.578;7.268;2023-04-26T01:43:53;101378.34;;;2.89;100.00
15272;BME280;7737;51.578;7.268;2023-04-26T01:46:20;101380.97;;;2.86;100.00
15272;BME280;7737;51.578;7.268;2023-04-26T01:48:46;101379.28;;;2.82;100.00
15272;BME280;7737;51.578;7.268;2023-04-26T01:51:13;101382.75;;;2.84;100.00
15272;BME280;7737;51.578;7.268;2023-04-26T01:53:40;101381.06;;;2.80;100.00
15272;BME280;7737;51.578;7.268;2023-04-26T01:56:07;101380.22;;;2.71;100.00
15272;BME280;7737;51.578;7.268;2023-04-26T01:58:35;101385.53;;;2.60;100.00
15272;BME280;7737;51.578;7.268;2023-04-26T02:01:04;101384.66;;;2.60;100.00
15272;BME280;7737;51.578;7.268;2023-04-26T02:03:31;101387.22;;;2.72;100.00
15272;BME280;7737;51.578;7.268;2023-04-26T02:05:58;101380.25;;;2.69;100.00
15272;BME280;7737;51.578;7.268;2023-04-26T02:08:24;101388.06;;;2.77;100.00
15272;BME280;7737;51.578;7.268;2023-04-26T02:10:51;101387.19;;;2.78;100.00
15272;BME280;7737;51.578;7.268;2023-04-26T02:13:18;101388.09;;;2.72;100.00
15272;BME280;7737;51.578;7.268;2023-04-26T02:15:47;101388.16;;;2.65;100.00
15272;BME280;7737;51.578;7.268;2023-04-26T02:18:14;101382.84;;;2.72;100.00
15272;BME280;7737;51.578;7.268;2023-04-26T02:20:41;101384.69;;;2.58;100.00
15272;BME280;7737;51.578;7.268;2023-04-26T02:23:08;101385.63;;;2.51;100.00
15272;BME280;7737;51.578;7.268;2023-04-26T02:25:35;101382.16;;;2.46;100.00
15272;BME280;7737;51.578;7.268;2023-04-26T02:28:02;101389.16;;;2.41;100.00
15272;BME280;7737;51.578;7.268;2023-04-26T02:30:29;101389.16;;;2.42;100.00
15272;BME280;7737;51.578;7.268;2023-04-26T02:32:57;101390.03;;;2.46;100.00
15272;BME280;7737;51.578;7.268;2023-04-26T02:35:24;101388.25;;;2.51;100.00
15272;BME280;7737;51.578;7.268;2023-04-26T02:37:50;101390.03;;;2.43;100.00
15272;BME280;7737;51.578;7.268;2023-04-26T02:40:18;101393.63;;;2.30;100.00
15272;BME280;7737;51.578;7.268;2023-04-26T02:42:44;101386.53;;;2.41;100.00
15272;BME280;7737;51.578;7.268;2023-04-26T02:45:11;101389.13;;;2.49;100.00
15272;BME280;7737;51.578;7.268;2023-04-26T02:47:38;101381.25;;;2.47;100.00
15272;BME280;7737;51.578;7.268;2023-04-26T02:50:07;101382.13;;;2.51;100.00
15272;BME280;7737;51.578;7.268;2023-04-26T02:52:34;101381.31;;;2.39;100.00
15272;BME280;7737;51.578;7.268;2023-04-26T02:55:01;101369.97;;;2.34;100.00
15272;BME280;7737;51.578;7.268;2023-04-26T02:57:28;101365.63;;;2.32;100.00
15272;BME280;7737;51.578;7.268;2023-04-26T02:59:55;101370.88;;;2.29;100.00
15272;BME280;7737;51.578;7.268;2023-04-26T03:02:21;101370.03;;;2.27;100.00
15272;BME280;7737;51.578;7.268;2023-04-26T03:04:48;101374.31;;;2.40;100.00
15272;BME280;7737;51.578;7.268;2023-04-26T03:07:16;101376.22;;;2.11;100.00
15272;BME280;7737;51.578;7.268;2023-04-26T03:09:42;101375.25;;;2.25;100.00
15272;BME280;7737;51.578;7.268;2023-04-26T03:12:09;101382.47;;;1.73;100.00
15272;BME280;7737;51.578;7.268;2023-04-26T03:14:35;101378.88;;;1.97;100.00
15272;BME280;7737;51.578;7.268;2023-04-26T03:17:02;101380.59;;;2.12;100.00
15272;BME280;7737;51.578;7.268;2023-04-26T03:19:28;101383.25;;;1.97;100.00
15272;BME280;7737;51.578;7.268;2023-04-26T03:21:55;101373.66;;;1.97;100.00
15272;BME280;7737;51.578;7.268;2023-04-26T03:24:23;101379.69;;;2.16;100.00
15272;BME280;7737;51.578;7.268;2023-04-26T03:26:49;101380.56;;;2.10;100.00
15272;BME280;7737;51.578;7.268;2023-04-26T03:29:16;101371.81;;;2.13;100.00
15272;BME280;7737;51.578;7.268;2023-04-26T03:31:43;101376.44;;;1.38;100.00
15272;BME280;7737;51.578;7.268;2023-04-26T03:34:09;101368.47;;;1.76;100.00
15272;BME280;7737;51.578;7.268;2023-04-26T03:36:36;101373.72;;;1.76;100.00
15272;BME280;7737;51.578;7.268;2023-04-26T03:39:02;101372.00;;;1.66;100.00
15272;BME280;7737;51.578;7.268;2023-04-26T03:41:31;101370.25;;;1.74;100.00
15272;BME280;7737;51.578;7.268;2023-04-26T03:44:00;101363.28;;;1.64;100.00
15272;BME280;7737;51.578;7.268;2023-04-26T03:46:26;101373.72;;;1.70;100.00
15272;BME280;7737;51.578;7.268;2023-04-26T03:48:53;101371.97;;;1.76;100.00
15272;BME280;7737;51.578;7.268;2023-04-26T03:51:19;101376.31;;;1.90;100.00
15272;BME280;7737;51.578;7.268;2023-04-26T03:53:46;101373.69;;;1.93;100.00
15272;BME280;7737;51.578;7.268;2023-04-26T03:56:13;101370.19;;;1.89;100.00
15272;BME280;7737;51.578;7.268;2023-04-26T03:58:41;101367.53;;;1.94;100.00
15272;BME280;7737;51.578;7.268;2023-04-26T04:01:07;101366.63;;;1.99;100.00
15272;BME280;7737;51.578;7.268;2023-04-26T04:03:34;101376.38;;;1.68;100.00
15272;BME280;7737;51.578;7.268;2023-04-26T04:06:01;101372.06;;;1.42;100.00
15272;BME280;7737;51.578;7.268;2023-04-26T04:08:28;101372.91;;;1.51;100.00
15272;BME280;7737;51.578;7.268;2023-04-26T04:10:55;101369.38;;;1.67;100.00
15272;BME280;7737;51.578;7.268;2023-04-26T04:13:21;101365.94;;;1.50;100.00
15272;BME280;7737;51.578;7.268;2023-04-26T04:15:50;101369.41;;;1.61;100.00
15272;BME280;7737;51.578;7.268;2023-04-26T04:18:16;101364.13;;;1.64;100.00
15272;BME280;7737;51.578;7.268;2023-04-26T04:20:43;101364.13;;;1.67;100.00
15272;BME280;7737;51.578;7.268;2023-04-26T04:23:10;101367.66;;;1.62;100.00
15272;BME280;7737;51.578;7.268;2023-04-26T04:25:36;101378.09;;;1.75;100.00
15272;BME280;7737;51.578;7.268;2023-04-26T04:28:03;101373.66;;;1.88;100.00
15272;BME280;7737;51.578;7.268;2023-04-26T04:30:29;101371.09;;;1.77;100.00
15272;BME280;7737;51.578;7.268;2023-04-26T04:32:58;101371.91;;;2.01;100.00
15272;BME280;7737;51.578;7.268;2023-04-26T04:35:24;101362.22;;;2.10;100.00
15272;BME280;7737;51.578;7.268;2023-04-26T04:37:53;101375.28;;;2.24;100.00
15272;BME280;7737;51.578;7.268;2023-04-26T04:40:20;101374.38;;;2.28;100.00
15272;BME280;7737;51.578;7.268;2023-04-26T04:42:47;101377.91;;;2.22;100.00
15272;BME280;7737;51.578;7.268;2023-04-26T04:45:14;101374.28;;;2.44;100.00
15272;BME280;7737;51.578;7.268;2023-04-26T04:47:41;101374.41;;;2.23;100.00
15272;BME280;7737;51.578;7.268;2023-04-26T04:50:10;101379.72;;;2.07;100.00
15272;BME280;7737;51.578;7.268;2023-04-26T04:52:37;101380.50;;;2.27;100.00
15272;BME280;7737;51.578;7.268;2023-04-26T04:55:04;101376.09;;;2.38;100.00
15272;BME280;7737;51.578;7.268;2023-04-26T04:57:31;101376.91;;;2.43;100.00
15272;BME280;7737;51.578;7.268;2023-04-26T04:59:57;101378.81;;;2.09;100.00
15272;BME280;7737;51.578;7.268;2023-04-26T05:02:31;101376.09;;;2.38;100.00
15272;BME280;7737;51.578;7.268;2023-04-26T05:04:57;101380.44;;;2.37;100.00
15272;BME280;7737;51.578;7.268;2023-04-26T05:07:26;101385.50;;;2.68;100.00
15272;BME280;7737;51.578;7.268;2023-04-26T05:09:53;101375.84;;;2.74;100.00
15272;BME280;7737;51.578;7.268;2023-04-26T05:12:20;101385.41;;;2.81;100.00
15272;BME280;7737;51.578;7.268;2023-04-26T05:14:47;101380.09;;;2.89;100.00
15272;BME280;7737;51.578;7.268;2023-04-26T05:17:13;101387.97;;;2.89;100.00
15272;BME280;7737;51.578;7.268;2023-04-26T05:19:40;101391.41;;;2.97;100.00
15272;BME280;7737;51.578;7.268;2023-04-26T05:22:06;101393.13;;;3.02;100.00
15272;BME280;7737;51.578;7.268;2023-04-26T05:24:34;101390.44;;;3.08;100.00
15272;BME280;7737;51.578;7.268;2023-04-26T05:27:01;101396.47;;;3.21;100.00
15272;BME280;7737;51.578;7.268;2023-04-26T05:29:28;101401.63;;;3.32;100.00
15272;BME280;7737;51.578;7.268;2023-04-26T05:31:55;101404.13;;;3.45;100.00
15272;BME280;7737;51.578;7.268;2023-04-26T05:34:22;101399.63;;;3.56;100.00
15272;BME280;7737;51.578;7.268;2023-04-26T05:36:48;101390.75;;;3.66;100.00
15272;BME280;7737;51.578;7.268;2023-04-26T05:39:15;101389.78;;;3.77;100.00
15272;BME280;7737;51.578;7.268;2023-04-26T05:41:44;101397.53;;;3.89;100.00
15272;BME280;7737;51.578;7.268;2023-04-26T05:44:11;101390.50;;;3.89;100.00
15272;BME280;7737;51.578;7.268;2023-04-26T05:46:38;101391.25;;;4.00;100.00
15272;BME280;7737;51.578;7.268;2023-04-26T05:49:04;101394.69;;;4.05;100.00
15272;BME280;7737;51.578;7.268;2023-04-26T05:51:31;101397.47;;;3.93;100.00
15272;BME280;7737;51.578;7.268;2023-04-26T05:53:58;101391.88;;;4.19;100.00
15272;BME280;7737;51.578;7.268;2023-04-26T05:56:25;101394.50;;;4.23;100.00
15272;BME280;7737;51.578;7.268;2023-04-26T05:58:52;101402.25;;;4.32;100.00
15272;BME280;7737;51.578;7.268;2023-04-26T06:01:19;101399.53;;;4.39;100.00
15272;BME280;7737;51.578;7.268;2023-04-26T06:03:46;101408.25;;;4.44;100.00
15272;BME280;7737;51.578;7.268;2023-04-26T06:06:12;101401.03;;;4.56;100.00
15272;BME280;7737;51.578;7.268;2023-04-26T06:08:40;101404.56;;;4.57;100.00
15272;BME280;7737;51.578;7.268;2023-04-26T06:11:07;101405.38;;;4.59;100.00
15272;BME280;7737;51.578;7.268;2023-04-26T06:13:33;101406.22;;;4.61;100.00
15272;BME280;7737;51.578;7.268;2023-04-26T06:16:01;101413.13;;;4.71;100.00
15272;BME280;7737;51.578;7.268;2023-04-26T06:18:28;101412.06;;;4.84;100.00
15272;BME280;7737;51.578;7.268;2023-04-26T06:20:54;101407.59;;;4.87;100.00
15272;BME280;7737;51.578;7.268;2023-04-26T06:23:21;101412.81;;;4.92;100.00
15272;BME280;7737;51.578;7.268;2023-04-26T06:25:47;101408.22;;;5.03;100.00
15272;BME280;7737;51.578;7.268;2023-04-26T06:28:14;101409.84;;;5.13;100.00
15272;BME280;7737;51.578;7.268;2023-04-26T06:30:41;101415.78;;;5.24;100.00
15272;BME280;7737;51.578;7.268;2023-04-26T06:33:09;101415.78;;;5.26;100.00
15272;BME280;7737;51.578;7.268;2023-04-26T06:35:38;101416.53;;;5.32;100.00
15272;BME280;7737;51.578;7.268;2023-04-26T06:38:05;101413.50;;;5.53;100.00
15272;BME280;7737;51.578;7.268;2023-04-26T06:40:32;101413.41;;;5.60;100.00
15272;BME280;7737;51.578;7.268;2023-04-26T06:42:59;101412.38;;;5.68;100.00
15272;BME280;7737;51.578;7.268;2023-04-26T06:45:25;101415.59;;;5.84;100.00
15272;BME280;7737;51.578;7.268;2023-04-26T06:47:52;101413.94;;;5.80;100.00
15272;BME280;7737;51.578;7.268;2023-04-26T06:50:20;101416.16;;;6.02;100.00
15272;BME280;7737;51.578;7.268;2023-04-26T06:52:47;101411.84;;;5.97;100.00
15272;BME280;7737;51.578;7.268;2023-04-26T06:55:13;101407.25;;;6.08;100.00
15272;BME280;7737;51.578;7.268;2023-04-26T06:57:40;101424.53;;;6.23;100.00
15272;BME280;7737;51.578;7.268;2023-04-26T07:00:07;101410.16;;;6.37;100.00
15272;BME280;7737;51.578;7.268;2023-04-26T07:02:34;101399.38;;;6.48;100.00
15272;BME280;7737;51.578;7.268;2023-04-26T07:05:01;101400.13;;;6.51;100.00
15272;BME280;7737;51.578;7.268;2023-04-26T07:07:29;101390.56;;;6.86;100.00
15272;BME280;7737;51.578;7.268;2023-04-26T07:09:56;101387.00;;;6.87;100.00
15272;BME280;7737;51.578;7.268;2023-04-26T07:12:22;101391.41;;;6.86;100.00
15272;BME280;7737;51.578;7.268;2023-04-26T07:14:49;101390.41;;;6.92;100.00
15272;BME280;7737;51.578;7.268;2023-04-26T07:17:15;101384.88;;;7.02;100.00
15272;BME280;7737;51.578;7.268;2023-04-26T07:19:42;101377.81;;;7.03;100.00
15272;BME280;7737;51.578;7.268;2023-04-26T07:22:08;101377.75;;;7.06;100.00
15272;BME280;7737;51.578;7.268;2023-04-26T07:24:36;101373.53;;;6.99;100.00
15272;BME280;7737;51.578;7.268;2023-04-26T07:27:03;101375.78;;;7.14;100.00
15272;BME280;7737;51.578;7.268;2023-04-26T07:29:29;101373.47;;;7.00;100.00
15272;BME280;7737;51.578;7.268;2023-04-26T07:31:56;101378.28;;;7.18;100.00
15272;BME280;7737;51.578;7.268;2023-04-26T07:34:23;101368.44;;;7.25;100.00
15272;BME280;7737;51.578;7.268;2023-04-26T07:36:49;101372.19;;;7.50;100.00
15272;BME280;7737;51.578;7.268;2023-04-26T07:39:16;101358.34;;;7.73;100.00
15272;BME280;7737;51.578;7.268;2023-04-26T07:41:45;101352.03;;;7.77;100.00
15272;BME280;7737;51.578;7.268;2023-04-26T07:44:11;101346.72;;;7.46;100.00
15272;BME280;7737;51.578;7.268;2023-04-26T07:46:38;101342.06;;;7.86;100.00
15272;BME280;7737;51.578;7.268;2023-04-26T07:49:05;101333.13;;;7.90;100.00
15272;BME280;7737;51.578;7.268;2023-04-26T07:51:31;101323.19;;;7.98;100.00
15272;BME280;7737;51.578;7.268;2023-04-26T07:53:58;101314.16;;;8.35;100.00
15272;BME280;7737;51.578;7.268;2023-04-26T07:56:25;101318.94;;;8.22;100.00
15272;BME280;7737;51.578;7.268;2023-04-26T07:58:53;101314.84;;;8.12;100.00
15272;BME280;7737;51.578;7.268;2023-04-26T08:01:20;101318.56;;;8.36;100.00
15272;BME280;7737;51.578;7.268;2023-04-26T08:03:47;101314.84;;;8.69;100.00
15272;BME280;7737;51.578;7.268;2023-04-26T08:06:13;101299.00;;;8.40;100.00
15272;BME280;7737;51.578;7.268;2023-04-26T08:08:41;101299.81;;;8.42;100.00
15272;BME280;7737;51.578;7.268;2023-04-26T08:11:09;101301.06;;;8.30;100.00
15272;BME280;7737;51.578;7.268;2023-04-26T08:13:36;101311.22;;;8.15;100.00
15272;BME280;7737;51.578;7.268;2023-04-26T08:16:05;101306.06;;;8.39;100.00
15272;BME280;7737;51.578;7.268;2023-04-26T08:18:31;101302.41;;;8.43;100.00
15272;BME280;7737;51.578;7.268;2023-04-26T08:20:58;101305.72;;;8.50;100.00
15272;BME280;7737;51.578;7.268;2023-04-26T08:23:24;101290.78;;;8.49;100.00
15272;BME280;7737;51.578;7.268;2023-04-26T08:25:51;101277.00;;;8.64;100.00
15272;BME280;7737;51.578;7.268;2023-04-26T08:28:17;101262.34;;;8.54;100.00
15272;BME280;7737;51.578;7.268;2023-04-26T08:30:44;101263.13;;;8.57;100.00
15272;BME280;7737;51.578;7.268;2023-04-26T08:33:12;101247.69;;;8.42;100.00
15272;BME280;7737;51.578;7.268;2023-04-26T08:35:38;101248.78;;;8.89;100.00
15272;BME280;7737;51.578;7.268;2023-04-26T08:38:05;101257.91;;;9.05;100.00
15272;BME280;7737;51.578;7.268;2023-04-26T08:40:32;101265.16;;;9.00;100.00
15272;BME280;7737;51.578;7.268;2023-04-26T08:42:59;101257.06;;;9.30;100.00
15272;BME280;7737;51.578;7.268;2023-04-26T08:45:25;101246.72;;;9.47;100.00
15272;BME280;7737;51.578;7.268;2023-04-26T08:47:55;101254.47;;;9.76;100.00
15272;BME280;7737;51.578;7.268;2023-04-26T08:50:27;101246.72;;;9.47;100.00
15272;BME280;7737;51.578;7.268;2023-04-26T08:52:55;101244.75;;;9.75;100.00
15272;BME280;7737;51.578;7.268;2023-04-26T08:55:22;101226.19;;;9.75;100.00
15272;BME280;7737;51.578;7.268;2023-04-26T08:57:49;101202.69;;;9.18;100.00
15272;BME280;7737;51.578;7.268;2023-04-26T09:00:17;101219.00;;;9.77;100.00
15272;BME280;7737;51.578;7.268;2023-04-26T09:02:47;101223.94;;;9.64;100.00
15272;BME280;7737;51.578;7.268;2023-04-26T09:05:14;101231.19;;;9.82;100.00
15272;BME280;7737;51.578;7.268;2023-04-26T09:07:44;101206.50;;;10.25;100.00
15272;BME280;7737;51.578;7.268;2023-04-26T09:10:12;101185.56;;;10.39;100.00
15272;BME280;7737;51.578;7.268;2023-04-26T09:12:39;101186.25;;;10.65;100.00
15272;BME280;7737;51.578;7.268;2023-04-26T09:15:06;101175.59;;;10.45;100.00
15272;BME280;7737;51.578;7.268;2023-04-26T09:17:35;101173.38;;;10.56;100.00
15272;BME280;7737;51.578;7.268;2023-04-26T09:20:17;101177.34;;;10.46;100.00
15272;BME280;7737;51.578;7.268;2023-04-26T09:22:45;101168.59;;;10.84;100.00
15272;BME280;7737;51.578;7.268;2023-04-26T09:25:12;101167.16;;;11.16;100.00
15272;BME280;7737;51.578;7.268;2023-04-26T09:27:40;101159.34;;;11.31;99.59
15272;BME280;7737;51.578;7.268;2023-04-26T09:30:10;101167.75;;;10.42;99.31
15272;BME280;7737;51.578;7.268;2023-04-26T09:32:51;101193.31;;;10.24;99.84
15272;BME280;7737;51.578;7.268;2023-04-26T09:35:26;101203.69;;;10.07;100.00
15272;BME280;7737;51.578;7.268;2023-04-26T09:37:56;101199.84;;;9.92;100.00
15272;BME280;7737;51.578;7.268;2023-04-26T09:40:25;101198.66;;;9.77;99.38
15272;BME280;7737;51.578;7.268;2023-04-26T09:43:00;101200.44;;;9.77;99.13
15272;BME280;7737;51.578;7.268;2023-04-26T09:45:28;101217.78;;;9.87;100.00
15272;BME280;7737;51.578;7.268;2023-04-26T09:48:11;101213.56;;;9.82;100.00
15272;BME280;7737;51.578;7.268;2023-04-26T09:50:38;101220.28;;;9.90;100.00
15272;BME280;7737;51.578;7.268;2023-04-26T09:53:06;101214.41;;;9.59;99.83
15272;BME280;7737;51.578;7.268;2023-04-26T09:55:33;101230.66;;;9.96;100.00
15272;BME280;7737;51.578;7.268;2023-04-26T09:58:07;101223.16;;;10.07;100.00
15272;BME280;7737;51.578;7.268;2023-04-26T10:00:37;101208.97;;;10.08;100.00
15272;BME280;7737;51.578;7.268;2023-04-26T10:03:05;101212.06;;;10.19;100.00
15272;BME280;7737;51.578;7.268;2023-04-26T10:05:33;101203.09;;;10.44;100.00
15272;BME280;7737;51.578;7.268;2023-04-26T10:08:00;101183.97;;;10.77;99.36
15272;BME280;7737;51.578;7.268;2023-04-26T10:10:29;101169.84;;;10.75;97.87
15272;BME280;7737;51.578;7.268;2023-04-26T10:12:56;101150.91;;;10.63;95.22
15272;BME280;7737;51.578;7.268;2023-04-26T10:15:23;101157.00;;;10.65;95.30
15272;BME280;7737;51.578;7.268;2023-04-26T10:17:50;101151.91;;;10.18;94.00
15272;BME280;7737;51.578;7.268;2023-04-26T10:20:17;101137.81;;;10.58;93.67
15272;BME280;7737;51.578;7.268;2023-04-26T10:22:52;101131.47;;;10.40;91.67
15272;BME280;7737;51.578;7.268;2023-04-26T10:25:35;101135.88;;;10.62;92.83
15272;BME280;7737;51.578;7.268;2023-04-26T10:28:02;101147.25;;;10.45;92.95
15272;BME280;7737;51.578;7.268;2023-04-26T10:30:29;101147.94;;;10.49;93.92
15272;BME280;7737;51.578;7.268;2023-04-26T10:33:11;101143.97;;;10.38;92.92
15272;BME280;7737;51.578;7.268;2023-04-26T10:35:59;101151.81;;;10.62;93.64
15272;BME280;7737;51.578;7.268;2023-04-26T10:38:26;101161.41;;;10.46;94.89
15272;BME280;7737;51.578;7.268;2023-04-26T10:40:55;101157.44;;;10.34;94.08
15272;BME280;7737;51.578;7.268;2023-04-26T10:43:41;101157.41;;;10.56;94.48
15272;BME280;7737;51.578;7.268;2023-04-26T10:46:33;101132.41;;;9.96;89.72
15272;BME280;7737;51.578;7.268;2023-04-26T10:49:14;101105.25;;;9.68;87.50
15272;BME280;7737;51.578;7.268;2023-04-26T10:52:10;101132.22;;;10.44;91.33
15272;BME280;7737;51.578;7.268;2023-04-26T10:54:52;101096.50;;;10.90;87.56
15272;BME280;7737;51.578;7.268;2023-04-26T10:57:21;101089.72;;;11.22;87.86
15272;BME280;7737;51.578;7.268;2023-04-26T11:00:18;101087.75;;;10.68;86.02
15272;BME280;7737;51.578;7.268;2023-04-26T11:02:52;101093.28;;;11.02;86.85
15272;BME280;7737;51.578;7.268;2023-04-26T11:05:49;101108.34;;;10.83;88.54
15272;BME280;7737;51.578;7.268;2023-04-26T11:08:18;101100.81;;;10.54;86.52
15272;BME280;7737;51.578;7.268;2023-04-26T11:10:50;101088.16;;;10.79;86.14
15272;BME280;7737;51.578;7.268;2023-04-26T11:13:18;101096.25;;;11.52;87.33
15272;BME280;7737;51.578;7.268;2023-04-26T11:15:46;101072.22;;;12.08;86.58
15272;BME280;7737;51.578;7.268;2023-04-26T11:18:13;101033.44;;;11.67;81.95
15272;BME280;7737;51.578;7.268;2023-04-26T11:20:43;101046.44;;;12.43;83.36
15272;BME280;7737;51.578;7.268;2023-04-26T11:23:10;101029.59;;;12.42;81.57
15272;BME280;7737;51.578;7.268;2023-04-26T11:25:38;101027.25;;;12.36;80.78
15272;BME280;7737;51.578;7.268;2023-04-26T11:28:05;101020.34;;;11.81;79.48
15272;BME280;7737;51.578;7.268;2023-04-26T11:30:33;101017.22;;;12.07;80.40
15272;BME280;7737;51.578;7.268;2023-04-26T11:33:00;101011.88;;;11.90;78.47
15272;BME280;7737;51.578;7.268;2023-04-26T11:35:28;101024.50;;;11.68;79.68
15272;BME280;7737;51.578;7.268;2023-04-26T11:37:57;100994.22;;;11.16;74.72
15272;BME280;7737;51.578;7.268;2023-04-26T11:40:27;101009.88;;;11.40;76.94
15272;BME280;7737;51.578;7.268;2023-04-26T11:42:54;101022.16;;;11.61;78.17
15272;BME280;7737;51.578;7.268;2023-04-26T11:45:24;101031.19;;;11.40;78.75
15272;BME280;7737;51.578;7.268;2023-04-26T11:47:52;100998.88;;;10.92;76.06
15272;BME280;7737;51.578;7.268;2023-04-26T11:50:20;101021.56;;;11.55;78.18
15272;BME280;7737;51.578;7.268;2023-04-26T11:52:52;101026.50;;;11.81;78.41
15272;BME280;7737;51.578;7.268;2023-04-26T11:55:22;101003.94;;;11.71;76.35
15272;BME280;7737;51.578;7.268;2023-04-26T11:57:49;101003.28;;;11.30;75.86
15272;BME280;7737;51.578;7.268;2023-04-26T12:00:17;100989.72;;;10.21;74.04
15272;BME280;7737;51.578;7.268;2023-04-26T12:02:44;101010.81;;;10.45;75.97
15272;BME280;7737;51.578;7.268;2023-04-26T12:05:21;101015.00;;;10.50;75.44
15272;BME280;7737;51.578;7.268;2023-04-26T12:07:49;101013.53;;;10.63;75.56
15272;BME280;7737;51.578;7.268;2023-04-26T12:10:17;101014.56;;;10.59;75.95
15272;BME280;7737;51.578;7.268;2023-04-26T12:12:48;100999.91;;;10.51;74.75
15272;BME280;7737;51.578;7.268;2023-04-26T12:15:16;101029.03;;;10.33;77.52
15272;BME280;7737;51.578;7.268;2023-04-26T12:17:53;101037.44;;;10.63;77.49
15272;BME280;7737;51.578;7.268;2023-04-26T12:20:29;101011.03;;;9.98;74.31
15272;BME280;7737;51.578;7.268;2023-04-26T12:23:01;101013.09;;;10.12;73.99
15272;BME280;7737;51.578;7.268;2023-04-26T12:25:28;101020.66;;;10.81;76.46
15272;BME280;7737;51.578;7.268;2023-04-26T12:27:55;101045.72;;;10.96;78.49
15272;BME280;7737;51.578;7.268;2023-04-26T12:30:22;101036.75;;;10.78;77.33
15272;BME280;7737;51.578;7.268;2023-04-26T12:32:49;101047.56;;;10.35;77.42
15272;BME280;7737;51.578;7.268;2023-04-26T12:35:15;101047.91;;;10.48;77.94
15272;BME280;7737;51.578;7.268;2023-04-26T12:37:44;101044.44;;;10.46;77.15
15272;BME280;7737;51.578;7.268;2023-04-26T12:40:12;101047.28;;;10.41;76.84
15272;BME280;7737;51.578;7.268;2023-04-26T12:42:39;101062.06;;;10.48;79.61
15272;BME280;7737;51.578;7.268;2023-04-26T12:45:06;101069.63;;;10.57;78.61
15272;BME280;7737;51.578;7.268;2023-04-26T12:47:33;101058.38;;;10.30;77.75
15272;BME280;7737;51.578;7.268;2023-04-26T12:50:00;101070.78;;;10.90;79.94
15272;BME280;7737;51.578;7.268;2023-04-26T12:52:26;101068.13;;;10.90;79.73
15272;BME280;7737;51.578;7.268;2023-04-26T12:54:54;101068.28;;;11.06;79.95
15272;BME280;7737;51.578;7.268;2023-04-26T12:57:21;101062.59;;;10.56;78.92
15272;BME280;7737;51.578;7.268;2023-04-26T12:59:48;101062.16;;;11.04;78.54
15272;BME280;7737;51.578;7.268;2023-04-26T13:02:14;101075.28;;;11.83;80.38
15272;BME280;7737;51.578;7.268;2023-04-26T13:04:41;101063.75;;;12.00;78.73